Time;durP1;ratioP1;P1;durP2;ratioP2;P2;SDS_P1;SDS_P2;PMS_P1;PMS_P2;Temp;Humidity;BMP_temperature;BMP_pressure;BME280_temperature;BME280_humidity;BME280_pressure;Samples;Min_cycle;Max_cycle;Signal;HPM_P1;HPM_P2
2022/07/06 00:01:47;;;;;;;;;4.00;4.00;;;;;-147.17;100.00;59696.56;4988982;28;51211;-60
2022/07/06 00:04:12;;;;;;;;;4.33;4.33;;;;;-147.17;100.00;59696.56;4988534;28;51189;-61
2022/07/06 00:06:38;;;;;;;;;3.67;3.67;;;;;-147.17;100.00;59696.56;4987889;28;51250;-62
2022/07/06 00:09:05;;;;;;;;;5.33;5.33;;;;;-147.17;100.00;59696.56;4989868;28;51092;-60
2022/07/06 00:11:30;;;;;;;;;3.67;3.67;;;;;-147.17;100.00;59696.56;4989843;28;52059;-63
2022/07/06 00:13:56;;;;;;;;;4.33;4.00;;;;;-147.17;100.00;59696.56;4988734;28;51140;-62
2022/07/06 00:16:21;;;;;;;;;4.67;4.67;;;;;-147.17;100.00;59696.56;4990001;28;51012;-61
2022/07/06 00:18:47;;;;;;;;;4.33;4.33;;;;;-147.17;100.00;59696.56;4989671;28;51094;-62
2022/07/06 00:21:12;;;;;;;;;5.00;5.00;;;;;-147.17;100.00;59696.56;5004073;28;53064;-61
2022/07/06 00:23:37;;;;;;;;;4.67;4.67;;;;;-147.17;100.00;59696.56;4990425;28;50997;-60
2022/07/06 00:26:03;;;;;;;;;5.00;5.00;;;;;-147.17;100.00;59696.56;4990695;28;51099;-61
2022/07/06 00:28:29;;;;;;;;;4.00;4.00;;;;;-147.17;100.00;59696.56;4988967;28;51347;-61
2022/07/06 00:30:54;;;;;;;;;7.00;6.00;;;;;-147.17;100.00;59696.56;4988858;28;52384;-61
2022/07/06 00:33:20;;;;;;;;;4.00;4.00;;;;;-147.17;100.00;59696.56;4990657;28;50926;-61
2022/07/06 00:35:46;;;;;;;;;4.67;4.67;;;;;-147.17;100.00;59696.56;5005257;28;51562;-60
2022/07/06 00:38:11;;;;;;;;;6.67;6.33;;;;;-147.17;100.00;59696.56;4987489;28;51188;-61
2022/07/06 00:40:36;;;;;;;;;5.33;5.00;;;;;-147.17;100.00;59696.56;4990930;28;51166;-61
2022/07/06 00:43:02;;;;;;;;;4.67;4.67;;;;;-147.17;100.00;59696.56;4992709;28;51079;-62
2022/07/06 00:45:28;;;;;;;;;5.00;5.00;;;;;-147.17;100.00;59696.56;4991751;28;50874;-61
2022/07/06 00:47:53;;;;;;;;;5.00;5.00;;;;;-147.17;100.00;59696.56;4992443;28;51053;-61
2022/07/06 00:50:22;;;;;;;;;6.00;6.00;;;;;-147.17;100.00;59696.56;4992491;28;51899;-61
2022/07/06 00:52:53;;;;;;;;;6.00;5.00;;;;;-147.17;100.00;59696.56;4994501;28;51178;-61
2022/07/06 00:55:24;;;;;;;;;7.00;6.00;;;;;-147.17;100.00;59696.56;4993431;28;50960;-60
2022/07/06 00:57:51;;;;;;;;;7.00;7.00;;;;;-147.17;100.00;59696.56;4994801;28;51192;-61
2022/07/06 01:00:19;;;;;;;;;5.33;5.33;;;;;-147.17;100.00;59696.56;4995728;28;51043;-60
2022/07/06 01:02:45;;;;;;;;;6.00;6.00;;;;;-147.17;100.00;59696.56;4992865;28;51099;-60
2022/07/06 01:05:13;;;;;;;;;6.00;6.00;;;;;-147.17;100.00;59696.56;4993751;28;51072;-63
2022/07/06 01:07:41;;;;;;;;;6.00;6.00;;;;;-147.17;100.00;59696.56;5008815;28;51359;-61
2022/07/06 01:10:08;;;;;;;;;6.00;6.00;;;;;-147.17;100.00;59696.56;4990014;28;51843;-60
2022/07/06 01:12:38;;;;;;;;;6.67;6.00;;;;;-147.17;100.00;59696.56;4990554;28;51135;-60
2022/07/06 01:15:06;;;;;;;;;6.67;6.67;;;;;-147.17;100.00;59696.56;4992534;28;51072;-60
2022/07/06 01:17:32;;;;;;;;;7.33;7.33;;;;;-147.17;100.00;59696.56;4992841;28;50944;-61
2022/07/06 01:19:58;;;;;;;;;6.00;6.00;;;;;-147.17;100.00;59696.56;4990480;28;52731;-61
2022/07/06 01:22:23;;;;;;;;;6.00;6.00;;;;;-147.17;100.00;59696.56;4993530;28;51094;-61
2022/07/06 01:24:49;;;;;;;;;8.00;8.00;;;;;-147.17;100.00;59696.56;4993050;28;50953;-60
2022/07/06 01:27:14;;;;;;;;;6.00;6.00;;;;;-147.17;100.00;59696.56;4993439;28;51402;-61
2022/07/06 01:29:40;;;;;;;;;6.00;6.00;;;;;-147.17;100.00;59696.56;4992597;28;52158;-62
2022/07/06 01:32:06;;;;;;;;;7.00;7.00;;;;;-147.17;100.00;59696.56;4999373;28;51114;-60
2022/07/06 01:34:31;;;;;;;;;6.00;5.67;;;;;-147.17;100.00;59696.56;4992852;28;50944;-61
2022/07/06 01:36:56;;;;;;;;;4.00;4.00;;;;;-147.17;100.00;59696.56;5007367;28;51163;-60
2022/07/06 01:39:22;;;;;;;;;7.67;7.00;;;;;-147.17;100.00;59696.56;4990994;28;52114;-62
2022/07/06 01:41:47;;;;;;;;;5.33;5.33;;;;;-147.17;100.00;59696.56;4992023;28;51132;-61
2022/07/06 01:44:13;;;;;;;;;7.33;7.33;;;;;-147.17;100.00;59696.56;4989880;28;51819;-61
2022/07/06 01:46:39;;;;;;;;;7.00;6.67;;;;;-147.17;100.00;59696.56;4991615;28;51201;-61
2022/07/06 01:49:05;;;;;;;;;5.33;5.33;;;;;-147.17;100.00;59696.56;4989668;28;51371;-61
2022/07/06 01:51:31;;;;;;;;;6.67;6.67;;;;;-147.17;100.00;59696.56;4992450;28;51167;-60
2022/07/06 01:53:57;;;;;;;;;6.33;5.33;;;;;-147.17;100.00;59696.56;4991236;28;51250;-60
2022/07/06 01:56:22;;;;;;;;;6.00;6.00;;;;;-147.17;100.00;59696.56;4990473;28;51771;-61
2022/07/06 01:58:48;;;;;;;;;6.00;6.00;;;;;-147.17;100.00;59696.56;4992482;28;51132;-61
2022/07/06 02:01:19;;;;;;;;;7.00;6.00;;;;;-147.17;100.00;59696.56;4992079;28;51150;-62
2022/07/06 02:03:45;;;;;;;;;7.00;6.00;;;;;-147.17;100.00;59696.56;4991815;28;50929;-62
2022/07/06 02:06:11;;;;;;;;;7.00;7.00;;;;;-147.17;100.00;59696.56;4991647;28;51202;-61
2022/07/06 02:08:38;;;;;;;;;7.00;6.00;;;;;-147.17;100.00;59696.56;4990511;28;52165;-61
2022/07/06 02:11:04;;;;;;;;;5.33;5.33;;;;;-147.17;100.00;59696.56;4992335;28;51010;-62
2022/07/06 02:13:30;;;;;;;;;6.00;5.00;;;;;-147.17;100.00;59696.56;4991601;28;51151;-61
2022/07/06 02:15:55;;;;;;;;;8.00;7.00;;;;;-147.17;100.00;59696.56;4992384;28;50953;-61
2022/07/06 02:18:20;;;;;;;;;7.00;6.00;;;;;-147.17;100.00;59696.56;4991266;28;51583;-62
2022/07/06 02:20:46;;;;;;;;;6.67;6.00;;;;;-147.17;100.00;59696.56;5011449;28;51067;-60
2022/07/06 02:23:12;;;;;;;;;6.00;5.00;;;;;-147.17;100.00;59696.56;4993626;28;51067;-60
2022/07/06 02:25:37;;;;;;;;;8.33;6.67;;;;;-147.17;100.00;59696.56;4992035;28;51357;-61
2022/07/06 02:28:03;;;;;;;;;9.00;9.00;;;;;-147.17;100.00;59696.56;4991531;28;51885;-62
2022/07/06 02:30:28;;;;;;;;;7.00;7.00;;;;;-147.17;100.00;59696.56;4990663;28;51262;-61
2022/07/06 02:32:54;;;;;;;;;9.00;9.00;;;;;-147.17;100.00;59696.56;4992186;28;51062;-62
2022/07/06 02:35:19;;;;;;;;;8.67;8.33;;;;;-147.17;100.00;59696.56;5007669;28;51511;-61
2022/07/06 02:37:44;;;;;;;;;7.00;7.00;;;;;-147.17;100.00;59696.56;4991853;28;51197;-62
2022/07/06 02:40:10;;;;;;;;;8.00;7.33;;;;;-147.17;100.00;59696.56;4991172;28;51176;-61
2022/07/06 02:42:35;;;;;;;;;8.33;7.33;;;;;-147.17;100.00;59696.56;4990987;28;50942;-63
2022/07/06 02:45:01;;;;;;;;;6.00;6.00;;;;;-147.17;100.00;59696.56;4991787;28;51115;-61
2022/07/06 02:47:26;;;;;;;;;9.00;9.00;;;;;-147.17;100.00;59696.56;5006284;28;52064;-61
2022/07/06 02:49:52;;;;;;;;;7.33;6.33;;;;;-147.17;100.00;59696.56;4990647;28;51154;-60
2022/07/06 02:52:18;;;;;;;;;9.33;8.00;;;;;-147.17;100.00;59696.56;5007462;28;51118;-60
2022/07/06 02:54:44;;;;;;;;;8.00;8.00;;;;;-147.17;100.00;59696.56;4990717;28;55169;-61
2022/07/06 02:57:09;;;;;;;;;7.00;7.00;;;;;-147.17;100.00;59696.56;4992193;28;51943;-61
2022/07/06 02:59:34;;;;;;;;;7.67;7.00;;;;;-147.17;100.00;59696.56;4990276;28;51072;-61
2022/07/06 03:02:00;;;;;;;;;8.67;7.67;;;;;-147.17;100.00;59696.56;4992244;28;51262;-59
2022/07/06 03:04:25;;;;;;;;;8.00;8.00;;;;;-147.17;100.00;59696.56;4990960;28;51512;-61
2022/07/06 03:06:50;;;;;;;;;9.67;8.00;;;;;-147.17;100.00;59696.56;4990087;28;51812;-60
2022/07/06 03:09:16;;;;;;;;;6.00;6.00;;;;;-147.17;100.00;59696.56;4989620;28;51076;-60
2022/07/06 03:11:41;;;;;;;;;7.00;7.00;;;;;-147.17;100.00;59696.56;4990288;28;51091;-59
2022/07/06 03:14:06;;;;;;;;;9.33;8.00;;;;;-147.17;100.00;59696.56;4990556;28;51334;-61
2022/07/06 03:16:32;;;;;;;;;9.00;8.00;;;;;-147.17;100.00;59696.56;4996456;28;51118;-59
2022/07/06 03:18:58;;;;;;;;;8.00;7.00;;;;;-147.17;100.00;59696.56;4988613;28;51170;-60
2022/07/06 03:21:24;;;;;;;;;1.33;1.00;;;;;-147.17;100.00;59696.56;5004767;28;51217;-61
2022/07/06 03:23:49;;;;;;;;;6.00;5.33;;;;;-147.17;100.00;59696.56;4990980;28;51287;-60
2022/07/06 03:26:14;;;;;;;;;5.67;5.67;;;;;-147.17;100.00;59696.56;4989423;28;51882;-60
2022/07/06 03:28:40;;;;;;;;;7.00;7.00;;;;;-147.17;100.00;59696.56;4990753;28;52256;-60
2022/07/06 03:31:05;;;;;;;;;7.00;7.00;;;;;-147.17;100.00;59696.56;4977305;28;51582;-61
2022/07/06 03:33:30;;;;;;;;;6.00;6.00;;;;;-147.17;100.00;59696.56;5006869;28;51086;-61
2022/07/06 03:35:57;;;;;;;;;8.00;8.00;;;;;-147.17;100.00;59696.56;4990835;28;51079;-60
2022/07/06 03:38:22;;;;;;;;;8.00;7.00;;;;;-147.17;100.00;59696.56;4989868;28;51259;-61
2022/07/06 03:40:47;;;;;;;;;7.00;6.67;;;;;-147.17;100.00;59696.56;4989577;28;51126;-61
2022/07/06 03:43:13;;;;;;;;;5.00;5.00;;;;;-147.17;100.00;59696.56;4988355;28;50965;-60
2022/07/06 03:45:38;;;;;;;;;8.00;8.00;;;;;-147.17;100.00;59696.56;4988634;28;51882;-61
2022/07/06 03:48:04;;;;;;;;;8.67;7.33;;;;;-147.17;100.00;59696.56;4990752;28;51217;-64
2022/07/06 03:50:29;;;;;;;;;6.00;6.00;;;;;-147.17;100.00;59696.56;5005416;28;50984;-61
2022/07/06 03:52:54;;;;;;;;;7.00;6.33;;;;;-147.17;100.00;59696.56;4989950;28;51128;-61
2022/07/06 03:55:20;;;;;;;;;8.00;8.00;;;;;-147.17;100.00;59696.56;4991008;28;51789;-61
2022/07/06 03:57:45;;;;;;;;;6.67;6.00;;;;;-147.17;100.00;59696.56;4991747;28;51094;-61
2022/07/06 04:00:11;;;;;;;;;8.00;7.33;;;;;-147.17;100.00;59696.56;5005094;28;51191;-61
2022/07/06 04:02:36;;;;;;;;;8.00;8.00;;;;;-147.17;100.00;59696.56;4991185;28;51021;-61
2022/07/06 04:05:02;;;;;;;;;7.00;5.33;;;;;-147.17;100.00;59696.56;4989277;28;51848;-61
2022/07/06 04:07:27;;;;;;;;;7.00;6.33;;;;;-147.17;100.00;59696.56;4991781;28;51088;-60
2022/07/06 04:09:53;;;;;;;;;7.00;7.00;;;;;-147.17;100.00;59696.56;4989983;28;51143;-61
2022/07/06 04:12:18;;;;;;;;;7.67;7.67;;;;;-147.17;100.00;59696.56;4988665;28;51135;-60
2022/07/06 04:14:43;;;;;;;;;8.00;8.00;;;;;-147.17;100.00;59696.56;4990375;28;51198;-61
2022/07/06 04:20:00;;;;;;;;;7.33;6.67;;;;;-147.17;100.00;59696.56;4982969;28;51117;-61
2022/07/06 04:22:26;;;;;;;;;10.00;9.00;;;;;-147.17;100.00;59696.56;4993567;28;51455;-60
2022/07/06 04:24:51;;;;;;;;;8.50;7.50;;;;;-147.17;100.00;59696.56;4993870;28;55323;-60
2022/07/06 04:27:16;;;;;;;;;7.00;7.00;;;;;-147.17;100.00;59696.56;4993890;28;51371;-62
2022/07/06 04:29:42;;;;;;;;;7.67;7.67;;;;;-147.17;100.00;59696.56;4992411;28;52596;-61
2022/07/06 04:32:07;;;;;;;;;8.00;8.00;;;;;-147.17;100.00;59696.56;4994106;28;52307;-61
2022/07/06 04:34:32;;;;;;;;;5.33;5.33;;;;;-147.17;100.00;59696.56;4995397;28;51046;-61
2022/07/06 04:36:58;;;;;;;;;8.67;8.33;;;;;-147.17;100.00;59696.56;4991520;28;51007;-61
2022/07/06 04:39:23;;;;;;;;;7.33;7.33;;;;;-147.17;100.00;59696.56;4994500;28;51120;-61
2022/07/06 04:41:48;;;;;;;;;7.00;7.00;;;;;-147.17;100.00;59696.56;4992601;28;51358;-61
2022/07/06 04:44:14;;;;;;;;;7.67;7.67;;;;;-147.17;100.00;59696.56;4994412;28;51540;-61
2022/07/06 04:46:39;;;;;;;;;7.00;7.00;;;;;-147.17;100.00;59696.56;4992495;28;51181;-61
2022/07/06 04:49:04;;;;;;;;;7.75;7.75;;;;;-147.17;100.00;59696.56;4993919;28;51115;-62
2022/07/06 04:51:30;;;;;;;;;8.67;8.33;;;;;-147.17;100.00;59696.56;4993563;28;51080;-60
2022/07/06 04:53:55;;;;;;;;;8.00;7.67;;;;;-147.17;100.00;59696.56;4993192;28;51617;-60
2022/07/06 04:56:20;;;;;;;;;9.33;9.00;;;;;-147.17;100.00;59696.56;4992475;28;51108;-61
2022/07/06 04:58:46;;;;;;;;;9.75;7.50;;;;;-147.17;100.00;59696.56;4992657;28;50831;-60
2022/07/06 05:01:11;;;;;;;;;9.25;9.25;;;;;-147.17;100.00;59696.56;4993947;28;50858;-61
2022/07/06 05:03:40;;;;;;;;;7.33;7.00;;;;;-147.17;100.00;59696.56;4990995;28;51045;-62
2022/07/06 05:06:06;;;;;;;;;9.25;7.00;;;;;-147.17;100.00;59696.56;4992449;28;51337;-62
2022/07/06 05:08:31;;;;;;;;;9.00;8.33;;;;;-147.17;100.00;59696.56;4977196;28;51035;-61
2022/07/06 05:10:57;;;;;;;;;7.00;7.00;;;;;-147.17;100.00;59696.56;4993464;28;51207;-62
2022/07/06 05:13:22;;;;;;;;;7.00;6.33;;;;;-147.17;100.00;59696.56;4992970;28;51131;-61
2022/07/06 05:15:47;;;;;;;;;12.00;11.00;;;;;-147.17;100.00;59696.56;4992649;28;51290;-61
2022/07/06 05:18:13;;;;;;;;;6.67;6.33;;;;;-147.17;100.00;59696.56;4993636;28;50922;-62
2022/07/06 05:20:38;;;;;;;;;10.67;9.00;;;;;-147.17;100.00;59696.56;4991751;28;52787;-61
2022/07/06 05:23:04;;;;;;;;;7.00;7.00;;;;;-147.17;100.00;59696.56;4990660;28;51219;-61
2022/07/06 05:25:29;;;;;;;;;8.00;8.00;;;;;-147.17;100.00;59696.56;4990109;28;51126;-62
2022/07/06 05:27:55;;;;;;;;;9.00;8.67;;;;;-147.17;100.00;59696.56;4992040;28;51109;-61
2022/07/06 05:30:20;;;;;;;;;6.33;5.33;;;;;-147.17;100.00;59696.56;4993211;28;51105;-61
2022/07/06 05:32:46;;;;;;;;;9.00;8.00;;;;;-147.17;100.00;59696.56;4992959;28;51942;-60
2022/07/06 05:35:11;;;;;;;;;7.33;7.33;;;;;-147.17;100.00;59696.56;4990584;28;51832;-61
2022/07/06 05:37:36;;;;;;;;;8.67;8.00;;;;;-147.17;100.00;59696.56;4990439;28;51165;-61
2022/07/06 05:40:02;;;;;;;;;9.33;9.33;;;;;-147.17;100.00;59696.56;5007849;28;51313;-61
2022/07/06 05:42:28;;;;;;;;;8.00;7.00;;;;;-147.17;100.00;59696.56;4992884;28;51817;-60
2022/07/06 05:44:56;;;;;;;;;6.00;5.00;;;;;-147.17;100.00;59696.56;4989982;28;51855;-60
2022/07/06 05:50:12;;;;;;;;;8.33;7.67;;;;;-147.17;100.00;59696.56;4991724;28;51155;-60
2022/07/06 05:52:42;;;;;;;;;9.00;8.00;;;;;-147.17;100.00;59696.56;4988833;28;51423;-60
2022/07/06 05:55:12;;;;;;;;;7.00;6.33;;;;;-147.17;100.00;59696.56;4988890;28;51037;-62
2022/07/06 05:57:39;;;;;;;;;6.50;6.50;;;;;-147.17;100.00;59696.56;4992659;28;51089;-61
2022/07/06 06:00:06;;;;;;;;;7.67;7.67;;;;;-147.17;100.00;59696.56;4993003;28;51154;-61
2022/07/06 06:02:42;;;;;;;;;7.00;7.00;;;;;-147.17;100.00;59696.56;4983198;28;51077;-61
2022/07/06 06:05:09;;;;;;;;;9.33;9.00;;;;;-147.17;100.00;59696.56;4991510;28;51215;-65
2022/07/06 06:07:38;;;;;;;;;8.00;8.00;;;;;-147.17;100.00;59696.56;4990595;28;52235;-61
2022/07/06 06:10:06;;;;;;;;;6.67;6.00;;;;;-147.17;100.00;59696.56;4990961;28;51111;-61
2022/07/06 06:12:31;;;;;;;;;7.67;7.67;;;;;-147.17;100.00;59696.56;4991405;28;51164;-60
2022/07/06 06:14:57;;;;;;;;;6.00;6.00;;;;;-147.17;100.00;59696.56;4992203;28;51164;-60
2022/07/06 06:17:22;;;;;;;;;10.00;9.67;;;;;-147.17;100.00;59696.56;4991129;28;51614;-61
2022/07/06 06:19:47;;;;;;;;;10.67;9.67;;;;;-147.17;100.00;59696.56;4991363;28;51503;-61
2022/07/06 06:22:13;;;;;;;;;11.67;10.33;;;;;-147.17;100.00;59696.56;4988271;28;51089;-61
2022/07/06 06:24:39;;;;;;;;;7.33;7.33;;;;;-147.17;100.00;59696.56;4987731;28;51086;-61
2022/07/06 06:27:04;;;;;;;;;6.00;6.00;;;;;-147.17;100.00;59696.56;4987293;28;51214;-60
2022/07/06 06:29:29;;;;;;;;;6.00;5.33;;;;;-147.17;100.00;59696.56;4988656;28;51131;-61
2022/07/06 06:31:55;;;;;;;;;6.00;5.00;;;;;-147.17;100.00;59696.56;4987340;28;51060;-61
2022/07/06 06:34:20;;;;;;;;;5.67;5.67;;;;;-147.17;100.00;59696.56;4990704;28;51232;-62
2022/07/06 06:36:46;;;;;;;;;8.00;7.00;;;;;-147.17;100.00;59696.56;4990323;28;51415;-61
2022/07/06 06:39:11;;;;;;;;;6.00;5.00;;;;;-147.17;100.00;59696.56;4990730;28;51325;-61
2022/07/06 06:41:36;;;;;;;;;7.33;7.00;;;;;-147.17;100.00;59696.56;4990619;28;51413;-61
2022/07/06 06:44:02;;;;;;;;;8.00;6.33;;;;;-147.17;100.00;59696.56;4988565;28;51171;-62
2022/07/06 06:46:27;;;;;;;;;9.33;9.00;;;;;-147.17;100.00;59696.56;4988976;28;51190;-60
2022/07/06 06:48:53;;;;;;;;;6.67;6.00;;;;;-147.17;100.00;59696.56;4991836;28;51297;-60
2022/07/06 06:51:18;;;;;;;;;7.00;7.00;;;;;-147.17;100.00;59696.56;4989772;28;51739;-60
2022/07/06 06:53:44;;;;;;;;;6.33;5.33;;;;;-147.17;100.00;59696.56;4990087;28;51169;-62
2022/07/06 06:56:09;;;;;;;;;6.00;6.00;;;;;-147.17;100.00;59696.56;4991962;28;50973;-61
2022/07/06 06:58:34;;;;;;;;;3.33;3.00;;;;;-147.17;100.00;59696.56;4991366;28;51299;-60
2022/07/06 07:01:00;;;;;;;;;6.00;6.00;;;;;-147.17;100.00;59696.56;4991383;28;51068;-59
2022/07/06 07:03:25;;;;;;;;;4.67;4.67;;;;;-147.17;100.00;59696.56;4989995;28;51076;-60
2022/07/06 07:05:50;;;;;;;;;5.00;4.00;;;;;-147.17;100.00;59696.56;4988492;28;51511;-61
2022/07/06 07:08:16;;;;;;;;;8.67;7.00;;;;;-147.17;100.00;59696.56;4991705;28;51383;-61
2022/07/06 07:10:41;;;;;;;;;5.33;5.33;;;;;-147.17;100.00;59696.56;4989759;28;53150;-60
2022/07/06 07:13:07;;;;;;;;;5.67;5.00;;;;;-147.17;100.00;59696.56;4991899;28;51136;-61
2022/07/06 07:15:32;;;;;;;;;4.00;4.00;;;;;-147.17;100.00;59696.56;4990087;28;51530;-61
2022/07/06 07:17:58;;;;;;;;;8.67;6.00;;;;;-147.17;100.00;59696.56;4991316;28;51171;-61
2022/07/06 07:20:25;;;;;;;;;5.67;5.00;;;;;-147.17;100.00;59696.56;4990729;28;51342;-61
2022/07/06 07:22:51;;;;;;;;;6.00;6.00;;;;;-147.17;100.00;59696.56;4993354;28;51100;-59
2022/07/06 07:25:16;;;;;;;;;6.00;6.00;;;;;-147.17;100.00;59696.56;4988674;28;51169;-60
2022/07/06 07:27:42;;;;;;;;;8.00;7.00;;;;;-147.17;100.00;59696.56;4987950;28;51253;-61
2022/07/06 07:30:08;;;;;;;;;5.00;5.00;;;;;-147.17;100.00;59696.56;4990157;28;51246;-61
2022/07/06 07:32:33;;;;;;;;;7.67;7.00;;;;;-147.17;100.00;59696.56;4989906;28;50959;-60
2022/07/06 07:34:59;;;;;;;;;7.00;7.00;;;;;-147.17;100.00;59696.56;4998426;28;51234;-60
2022/07/06 07:37:28;;;;;;;;;6.00;6.00;;;;;-147.17;100.00;59696.56;4990620;28;50990;-61
2022/07/06 07:39:53;;;;;;;;;6.33;6.33;;;;;-147.17;100.00;59696.56;4990730;28;52089;-60
2022/07/06 07:42:18;;;;;;;;;5.00;5.00;;;;;-147.17;100.00;59696.56;5000665;28;51180;-60
2022/07/06 07:44:44;;;;;;;;;4.00;4.00;;;;;-147.17;100.00;59696.56;4991502;28;51241;-68
2022/07/06 07:47:09;;;;;;;;;5.00;5.00;;;;;-147.17;100.00;59696.56;4991963;28;51074;-71
2022/07/06 07:49:34;;;;;;;;;5.00;5.00;;;;;-147.17;100.00;59696.56;4993279;28;52862;-71
2022/07/06 07:52:00;;;;;;;;;6.67;6.00;;;;;-147.17;100.00;59696.56;4993776;28;51047;-70
2022/07/06 07:54:25;;;;;;;;;6.67;6.00;;;;;-147.17;100.00;59696.56;4994774;28;51230;-74
2022/07/06 07:56:50;;;;;;;;;5.67;5.67;;;;;-147.17;100.00;59696.56;4994943;28;51252;-71
2022/07/06 07:59:16;;;;;;;;;10.00;10.00;;;;;-147.17;100.00;59696.56;4991727;28;51396;-70
2022/07/06 08:01:41;;;;;;;;;7.00;6.33;;;;;-147.17;100.00;59696.56;4994148;28;51235;-69
2022/07/06 08:04:06;;;;;;;;;7.33;7.00;;;;;-147.17;100.00;59696.56;4992872;28;51049;-70
2022/07/06 08:06:32;;;;;;;;;7.00;7.00;;;;;-147.17;100.00;59696.56;4995050;28;51064;-72
2022/07/06 08:08:58;;;;;;;;;6.00;6.00;;;;;-147.17;100.00;59696.56;4994509;28;51300;-74
2022/07/06 08:11:24;;;;;;;;;7.33;7.00;;;;;-147.17;100.00;59696.56;4994093;28;51077;-73
2022/07/06 08:13:49;;;;;;;;;6.00;6.00;;;;;-147.17;100.00;59696.56;4993753;28;51188;-73
2022/07/06 08:16:15;;;;;;;;;37.25;33.75;;;;;-147.17;100.00;59696.56;4990742;28;51339;-73
2022/07/06 08:18:40;;;;;;;;;5.67;5.00;;;;;-147.17;100.00;59696.56;4991208;28;51885;-69
2022/07/06 08:21:06;;;;;;;;;9.00;6.00;;;;;-147.17;100.00;59696.56;4995321;28;51142;-69
2022/07/06 08:23:34;;;;;;;;;7.67;7.67;;;;;-147.17;100.00;59696.56;4997214;28;51092;-69
2022/07/06 08:26:00;;;;;;;;;6.67;6.00;;;;;-147.17;100.00;59696.56;4990440;28;51308;-69
2022/07/06 08:28:25;;;;;;;;;8.33;8.00;;;;;-147.17;100.00;59696.56;4992732;28;51631;-70
2022/07/06 08:30:51;;;;;;;;;7.33;6.00;;;;;-147.17;100.00;59696.56;4996284;28;51018;-70
2022/07/06 08:33:16;;;;;;;;;7.00;7.00;;;;;-147.17;100.00;59696.56;4994619;28;51049;-70
2022/07/06 08:35:41;;;;;;;;;8.67;7.67;;;;;-147.17;100.00;59696.56;4992650;28;51017;-71
2022/07/06 08:38:07;;;;;;;;;6.67;6.67;;;;;-147.17;100.00;59696.56;4992077;28;51786;-71
2022/07/06 08:40:37;;;;;;;;;8.67;8.00;;;;;-147.17;100.00;59696.56;4991356;28;52454;-71
2022/07/06 08:43:02;;;;;;;;;8.67;8.67;;;;;-147.17;100.00;59696.56;4991923;28;51316;-69
2022/07/06 08:45:29;;;;;;;;;7.00;6.67;;;;;-147.17;100.00;59696.56;5001112;28;51194;-70
2022/07/06 08:47:58;;;;;;;;;17.25;17.00;;;;;-147.17;100.00;59696.56;4986825;28;53032;-69
2022/07/06 08:50:25;;;;;;;;;8.00;8.00;;;;;-147.17;100.00;59696.56;4994764;28;51185;-70
2022/07/06 08:52:50;;;;;;;;;6.67;6.00;;;;;-147.17;100.00;59696.56;4994741;28;51092;-70
2022/07/06 08:55:17;;;;;;;;;33.25;31.50;;;;;-147.17;100.00;59696.56;4994080;28;52525;-69
2022/07/06 08:57:46;;;;;;;;;9.00;9.00;;;;;-147.17;100.00;59696.56;4995526;28;51923;-69
2022/07/06 09:00:12;;;;;;;;;9.00;8.00;;;;;-147.17;100.00;59696.56;4992819;28;51102;-70
2022/07/06 09:02:40;;;;;;;;;11.67;11.67;;;;;-147.17;100.00;59696.56;4992629;28;51142;-69
2022/07/06 09:05:08;;;;;;;;;14.00;14.00;;;;;-147.17;100.00;59696.56;4991208;28;52269;-71
2022/07/06 09:07:34;;;;;;;;;5.33;5.00;;;;;-147.17;100.00;59696.56;4996396;28;52723;-72
2022/07/06 09:10:01;;;;;;;;;7.00;6.00;;;;;-147.17;100.00;59696.56;4992459;28;51218;-69
2022/07/06 09:12:27;;;;;;;;;6.33;6.33;;;;;-147.17;100.00;59696.56;4994003;28;51193;-69
2022/07/06 09:14:57;;;;;;;;;9.00;8.00;;;;;-147.17;100.00;59696.56;4998892;28;51031;-69
2022/07/06 09:17:27;;;;;;;;;6.00;4.33;;;;;-147.17;100.00;59696.56;4990881;28;51786;-68
2022/07/06 09:19:54;;;;;;;;;6.00;6.00;;;;;-147.17;100.00;59696.56;4990477;28;50965;-70
2022/07/06 09:22:31;;;;;;;;;6.00;5.33;;;;;-147.17;100.00;59696.56;4978698;28;51173;-70
2022/07/06 09:25:08;;;;;;;;;9.00;8.67;;;;;-147.17;100.00;59696.56;4995538;28;53348;-70
2022/07/06 09:27:41;;;;;;;;;6.00;5.00;;;;;-147.17;100.00;59696.56;4993236;28;51393;-70
2022/07/06 09:30:09;;;;;;;;;5.00;4.00;;;;;-147.17;100.00;59696.56;4990991;28;51608;-70
2022/07/06 09:32:39;;;;;;;;;6.00;5.00;;;;;-147.17;100.00;59696.56;4991535;28;51181;-70
2022/07/06 09:35:05;;;;;;;;;4.00;4.00;;;;;-147.17;100.00;59696.56;4993003;28;51626;-69
2022/07/06 09:37:31;;;;;;;;;6.00;5.00;;;;;-147.17;100.00;59696.56;4988569;28;51193;-69
2022/07/06 09:39:56;;;;;;;;;5.33;4.00;;;;;-147.17;100.00;59696.56;4992668;28;51066;-69
2022/07/06 09:42:26;;;;;;;;;4.33;4.33;;;;;-147.17;100.00;59696.56;4992882;28;51195;-70
2022/07/06 09:44:51;;;;;;;;;4.33;4.33;;;;;-147.17;100.00;59696.56;4994195;28;50877;-70
2022/07/06 09:47:18;;;;;;;;;5.00;5.00;;;;;-147.17;100.00;59696.56;4992345;28;52626;-69
2022/07/06 09:49:45;;;;;;;;;5.00;5.00;;;;;-147.17;100.00;59696.56;4993546;28;50942;-70
2022/07/06 09:52:11;;;;;;;;;5.33;5.00;;;;;-147.17;100.00;59696.56;4992794;28;51261;-70
2022/07/06 09:54:38;;;;;;;;;6.33;6.33;;;;;-147.17;100.00;59696.56;4994214;28;51249;-69
2022/07/06 09:57:05;;;;;;;;;6.67;6.67;;;;;-147.17;100.00;59696.56;4991862;28;51214;-70
2022/07/06 09:59:33;;;;;;;;;8.67;8.33;;;;;-147.17;100.00;59696.56;5008557;28;51084;-70
2022/07/06 10:02:05;;;;;;;;;5.00;4.00;;;;;-147.17;100.00;59696.56;4993351;28;51063;-71
2022/07/06 10:04:30;;;;;;;;;18.33;15.00;;;;;-147.17;100.00;59696.56;4986192;28;50951;-70
2022/07/06 10:06:58;;;;;;;;;5.00;5.00;;;;;-147.17;100.00;59696.56;5002560;28;51305;-69
2022/07/06 10:09:25;;;;;;;;;5.33;5.00;;;;;-147.17;100.00;59696.56;4987116;28;51059;-70
2022/07/06 10:11:53;;;;;;;;;6.00;6.00;;;;;-147.17;100.00;59696.56;4988121;28;51101;-71
2022/07/06 10:14:30;;;;;;;;;5.00;5.00;;;;;-147.17;100.00;59696.56;4990866;28;51214;-70
2022/07/06 10:17:01;;;;;;;;;7.67;7.67;;;;;-147.17;100.00;59696.56;4992264;28;53043;-70
2022/07/06 10:19:28;;;;;;;;;6.33;5.33;;;;;-147.17;100.00;59696.56;4992676;28;51094;-70
2022/07/06 10:21:58;;;;;;;;;6.00;6.00;;;;;-147.17;100.00;59696.56;4992282;28;51147;-69
2022/07/06 10:24:24;;;;;;;;;7.33;7.33;;;;;-147.17;100.00;59696.56;4986011;28;51469;-71
2022/07/06 10:26:50;;;;;;;;;6.67;6.67;;;;;-147.17;100.00;59696.56;4992272;28;51030;-70
2022/07/06 10:29:15;;;;;;;;;6.00;5.00;;;;;-147.17;100.00;59696.56;4986973;28;51170;-69
2022/07/06 10:31:44;;;;;;;;;6.00;6.00;;;;;-147.17;100.00;59696.56;4991501;28;51739;-71
2022/07/06 10:34:12;;;;;;;;;5.00;5.00;;;;;-147.17;100.00;59696.56;4998485;28;51218;-69
2022/07/06 10:36:43;;;;;;;;;4.33;4.00;;;;;-147.17;100.00;59696.56;4990670;28;50865;-70
2022/07/06 10:41:55;;;;;;;;;4.67;4.33;;;;;-147.17;100.00;59696.56;4991419;28;51162;-70
2022/07/06 10:44:25;;;;;;;;;4.00;4.00;;;;;-147.17;100.00;59696.56;4992494;28;50931;-70
2022/07/06 10:46:58;;;;;;;;;5.00;5.00;;;;;-147.17;100.00;59696.56;4987349;28;52013;-69
2022/07/06 10:49:26;;;;;;;;;8.67;8.00;;;;;-147.17;100.00;59696.56;4991468;28;51087;-70
2022/07/06 10:51:52;;;;;;;;;4.33;4.33;;;;;-147.17;100.00;59696.56;4991184;28;51210;-70
2022/07/06 10:54:19;;;;;;;;;5.00;5.00;;;;;-147.17;100.00;59696.56;4972818;28;51443;-69
2022/07/06 10:56:51;;;;;;;;;5.67;4.33;;;;;-147.17;100.00;59696.56;4993668;28;52463;-70
2022/07/06 10:59:19;;;;;;;;;6.00;5.67;;;;;-147.17;100.00;59696.56;4993790;28;51188;-70
2022/07/06 11:02:14;;;;;;;;;3.00;3.00;;;;;-147.17;100.00;59696.56;4990816;28;51182;-71
2022/07/06 11:04:41;;;;;;;;;6.00;5.00;;;;;-147.17;100.00;59696.56;4988023;28;51401;-70
2022/07/06 11:07:11;;;;;;;;;4.67;4.67;;;;;-147.17;100.00;59696.56;4991701;28;51079;-69
2022/07/06 11:09:47;;;;;;;;;5.33;5.33;;;;;-147.17;100.00;59696.56;4982293;28;51230;-70
2022/07/06 11:12:20;;;;;;;;;6.00;6.00;;;;;-147.17;100.00;59696.56;4985191;28;51096;-70
2022/07/06 11:14:46;;;;;;;;;16.50;16.00;;;;;-147.17;100.00;59696.56;4986936;28;51178;-70